sensor_id;sensor_type;location;lat;lon;timestamp;noise_LAeq;noise_LA_min;noise_LA_max;noise_LA01;noise_LA95
47990;Laerm;33757;52.364;4.938;2022-08-01T00:00:11;43.04;40.71;45.72;;
47990;Laerm;33757;52.364;4.938;2022-08-01T00:00:21;42.42;40.53;43.94;;
47990;Laerm;33757;52.364;4.938;2022-08-01T00:00:32;42.06;39.92;43.14;;
47990;Laerm;33757;52.364;4.938;2022-08-01T00:00:42;42.31;40.43;43.90;;
47990;Laerm;33757;52.364;4.938;2022-08-01T00:00:52;44.20;41.53;47.26;;
47990;Laerm;33757;52.364;4.938;2022-08-01T00:01:02;42.28;39.92;43.72;;
47990;Laerm;33757;52.364;4.938;2022-08-01T00:01:13;42.16;40.33;43.90;;
47990;Laerm;33757;52.364;4.938;2022-08-01T00:01:23;42.41;40.89;45.66;;
47990;Laerm;33757;52.364;4.938;2022-08-01T00:01:34;43.58;41.82;44.97;;
47990;Laerm;33757;52.364;4.938;2022-08-01T00:01:44;44.91;42.22;51.33;;
47990;Laerm;33757;52.364;4.938;2022-08-01T00:01:54;44.68;42.41;48.07;;
47990;Laerm;33757;52.364;4.938;2022-08-01T00:02:04;42.69;40.80;45.36;;
47990;Laerm;33757;52.364;4.938;2022-08-01T00:02:14;42.36;40.71;43.86;;
47990;Laerm;33757;52.364;4.938;2022-08-01T00:02:25;42.47;40.13;45.86;;
47990;Laerm;33757;52.364;4.938;2022-08-01T00:02:37;42.27;40.13;43.72;;
47990;Laerm;33757;52.364;4.938;2022-08-01T00:02:50;42.25;39.21;43.94;;
47990;Laerm;33757;52.364;4.938;2022-08-01T00:03:01;42.27;40.13;44.19;;
47990;Laerm;33757;52.364;4.938;2022-08-01T00:03:11;42.16;39.89;43.77;;
47990;Laerm;33757;52.364;4.938;2022-08-01T00:03:21;42.38;40.53;45.04;;
47990;Laerm;33757;52.364;4.938;2022-08-01T00:03:31;43.06;41.30;44.54;;
47990;Laerm;33757;52.364;4.938;2022-08-01T00:03:41;43.36;41.61;45.80;;
47990;Laerm;33757;52.364;4.938;2022-08-01T00:03:52;42.78;40.43;44.11;;
47990;Laerm;33757;52.364;4.938;2022-08-01T00:04:02;43.61;41.46;46.93;;
47990;Laerm;33757;52.364;4.938;2022-08-01T00:04:12;51.44;42.90;60.20;;
47990;Laerm;33757;52.364;4.938;2022-08-01T00:04:23;62.60;44.58;72.09;;
47990;Laerm;33757;52.364;4.938;2022-08-01T00:04:33;60.06;50.86;69.54;;
47990;Laerm;33757;52.364;4.938;2022-08-01T00:04:43;47.66;43.90;52.88;;
47990;Laerm;33757;52.364;4.938;2022-08-01T00:04:54;44.23;42.35;46.05;;
47990;Laerm;33757;52.364;4.938;2022-08-01T00:05:04;42.75;40.53;44.31;;
47990;Laerm;33757;52.364;4.938;2022-08-01T00:05:17;42.62;40.98;44.51;;
47990;Laerm;33757;52.364;4.938;2022-08-01T00:05:27;43.05;41.14;44.87;;
47990;Laerm;33757;52.364;4.938;2022-08-01T00:05:37;42.55;40.62;43.86;;
47990;Laerm;33757;52.364;4.938;2022-08-01T00:05:48;42.42;41.14;43.86;;
47990;Laerm;33757;52.364;4.938;2022-08-01T00:05:58;42.42;40.62;43.68;;
47990;Laerm;33757;52.364;4.938;2022-08-01T00:06:08;44.27;41.22;47.93;;
47990;Laerm;33757;52.364;4.938;2022-08-01T00:06:18;43.51;41.06;48.31;;
47990;Laerm;33757;52.364;4.938;2022-08-01T00:06:29;42.29;40.71;43.86;;
47990;Laerm;33757;52.364;4.938;2022-08-01T00:06:39;42.41;40.80;44.73;;
47990;Laerm;33757;52.364;4.938;2022-08-01T00:06:49;43.02;41.06;45.27;;
47990;Laerm;33757;52.364;4.938;2022-08-01T00:07:00;43.68;41.46;47.12;;
47990;Laerm;33757;52.364;4.938;2022-08-01T00:07:10;42.56;40.71;44.03;;
47990;Laerm;33757;52.364;4.938;2022-08-01T00:07:20;42.67;40.98;44.15;;
47990;Laerm;33757;52.364;4.938;2022-08-01T00:07:30;42.67;41.14;43.99;;
47990;Laerm;33757;52.364;4.938;2022-08-01T00:07:41;42.86;40.23;44.83;;
47990;Laerm;33757;52.364;4.938;2022-08-01T00:07:51;43.17;41.30;44.90;;
47990;Laerm;33757;52.364;4.938;2022-08-01T00:08:01;42.14;40.45;43.34;;
47990;Laerm;33757;52.364;4.938;2022-08-01T00:08:11;42.45;40.62;45.77;;
47990;Laerm;33757;52.364;4.938;2022-08-01T00:08:22;42.21;40.62;43.44;;
47990;Laerm;33757;52.364;4.938;2022-08-01T00:08:32;42.35;40.53;43.68;;
47990;Laerm;33757;52.364;4.938;2022-08-01T00:08:42;42.28;40.03;43.58;;
47990;Laerm;33757;52.364;4.938;2022-08-01T00:08:53;42.16;40.43;43.90;;
47990;Laerm;33757;52.364;4.938;2022-08-01T00:09:03;42.04;40.13;43.29;;
47990;Laerm;33757;52.364;4.938;2022-08-01T00:09:13;43.32;40.43;45.89;;
47990;Laerm;33757;52.364;4.938;2022-08-01T00:09:23;43.23;40.43;47.20;;
47990;Laerm;33757;52.364;4.938;2022-08-01T00:09:34;42.30;40.53;45.60;;
47990;Laerm;33757;52.364;4.938;2022-08-01T00:09:44;42.33;40.89;44.15;;
47990;Laerm;33757;52.364;4.938;2022-08-01T00:09:54;45.53;41.22;51.25;;
47990;Laerm;33757;52.364;4.938;2022-08-01T00:10:05;42.71;40.89;45.33;;
47990;Laerm;33757;52.364;4.938;2022-08-01T00:10:16;42.41;40.33;50.05;;
47990;Laerm;33757;52.364;4.938;2022-08-01T00:10:27;42.38;40.03;44.73;;
47990;Laerm;33757;52.364;4.938;2022-08-01T00:10:37;42.57;40.89;45.48;;
47990;Laerm;33757;52.364;4.938;2022-08-01T00:10:47;43.65;40.89;49.49;;
47990;Laerm;33757;52.364;4.938;2022-08-01T00:10:57;42.52;40.62;45.20;;
47990;Laerm;33757;52.364;4.938;2022-08-01T00:11:08;42.05;40.33;43.49;;
47990;Laerm;33757;52.364;4.938;2022-08-01T00:11:19;41.94;40.43;43.68;;
47990;Laerm;33757;52.364;4.938;2022-08-01T00:11:29;41.91;39.46;43.19;;
47990;Laerm;33757;52.364;4.938;2022-08-01T00:11:39;41.95;40.53;44.39;;
47990;Laerm;33757;52.364;4.938;2022-08-01T00:11:49;43.07;40.71;46.48;;
47990;Laerm;33757;52.364;4.938;2022-08-01T00:12:00;44.11;41.68;47.14;;
47990;Laerm;33757;52.364;4.938;2022-08-01T00:12:10;43.23;41.53;45.60;;
47990;Laerm;33757;52.364;4.938;2022-08-01T00:12:20;43.66;41.82;46.78;;
47990;Laerm;33757;52.364;4.938;2022-08-01T00:12:30;43.05;41.06;44.58;;
47990;Laerm;33757;52.364;4.938;2022-08-01T00:12:41;42.29;40.03;44.15;;
47990;Laerm;33757;52.364;4.938;2022-08-01T00:12:51;42.10;38.95;43.63;;
47990;Laerm;33757;52.364;4.938;2022-08-01T00:13:01;42.20;40.13;44.65;;
47990;Laerm;33757;52.364;4.938;2022-08-01T00:13:12;42.18;40.03;45.01;;
47990;Laerm;33757;52.364;4.938;2022-08-01T00:13:22;42.44;39.81;46.38;;
47990;Laerm;33757;52.364;4.938;2022-08-01T00:13:32;44.06;39.70;60.73;;
47990;Laerm;33757;52.364;4.938;2022-08-01T00:13:42;42.27;40.71;43.99;;
47990;Laerm;33757;52.364;4.938;2022-08-01T00:13:52;42.77;40.71;48.88;;
47990;Laerm;33757;52.364;4.938;2022-08-01T00:14:03;46.23;41.14;50.66;;
47990;Laerm;33757;52.364;4.938;2022-08-01T00:14:13;48.23;45.39;54.07;;
47990;Laerm;33757;52.364;4.938;2022-08-01T00:14:23;53.36;44.87;56.83;;
47990;Laerm;33757;52.364;4.938;2022-08-01T00:14:33;47.37;43.54;51.45;;
47990;Laerm;33757;52.364;4.938;2022-08-01T00:14:43;43.42;41.61;46.45;;
47990;Laerm;33757;52.364;4.938;2022-08-01T00:14:54;42.69;41.11;45.11;;
47990;Laerm;33757;52.364;4.938;2022-08-01T00:15:04;43.30;41.38;47.52;;
47990;Laerm;33757;52.364;4.938;2022-08-01T00:15:15;43.28;41.68;49.30;;
47990;Laerm;33757;52.364;4.938;2022-08-01T00:15:26;42.48;40.23;44.69;;
47990;Laerm;33757;52.364;4.938;2022-08-01T00:15:36;42.36;40.62;46.55;;
47990;Laerm;33757;52.364;4.938;2022-08-01T00:15:46;43.51;41.53;46.55;;
47990;Laerm;33757;52.364;4.938;2022-08-01T00:15:56;43.56;41.22;50.04;;
47990;Laerm;33757;52.364;4.938;2022-08-01T00:16:07;43.61;42.09;46.07;;
47990;Laerm;33757;52.364;4.938;2022-08-01T00:16:17;44.70;42.29;47.67;;
47990;Laerm;33757;52.364;4.938;2022-08-01T00:16:27;50.41;45.17;56.47;;
47990;Laerm;33757;52.364;4.938;2022-08-01T00:16:37;61.20;51.01;64.31;;
47990;Laerm;33757;52.364;4.938;2022-08-01T00:16:48;57.58;53.71;69.89;;
47990;Laerm;33757;52.364;4.938;2022-08-01T00:16:58;51.25;45.14;58.73;;
47990;Laerm;33757;52.364;4.938;2022-08-01T00:17:08;50.10;44.69;60.95;;
47990;Laerm;33757;52.364;4.938;2022-08-01T00:17:19;52.67;46.92;59.24;;
47990;Laerm;33757;52.364;4.938;2022-08-01T00:17:29;59.28;54.34;62.54;;
47990;Laerm;33757;52.364;4.938;2022-08-01T00:17:40;51.79;42.03;58.25;;
47990;Laerm;33757;52.364;4.938;2022-08-01T00:17:50;42.68;40.71;44.15;;
47990;Laerm;33757;52.364;4.938;2022-08-01T00:18:00;42.26;39.70;43.99;;
47990;Laerm;33757;52.364;4.938;2022-08-01T00:18:11;44.11;41.75;49.91;;
47990;Laerm;33757;52.364;4.938;2022-08-01T00:18:21;43.58;41.38;46.87;;
47990;Laerm;33757;52.364;4.938;2022-08-01T00:18:31;44.11;40.89;50.82;;
47990;Laerm;33757;52.364;4.938;2022-08-01T00:18:42;42.79;40.23;48.15;;
47990;Laerm;33757;52.364;4.938;2022-08-01T00:18:52;42.97;40.62;48.36;;
47990;Laerm;33757;52.364;4.938;2022-08-01T00:19:02;42.67;40.62;48.80;;
47990;Laerm;33757;52.364;4.938;2022-08-01T00:19:12;42.28;40.33;44.07;;
47990;Laerm;33757;52.364;4.938;2022-08-01T00:19:22;42.94;41.14;46.93;;
47990;Laerm;33757;52.364;4.938;2022-08-01T00:19:33;43.68;41.14;46.50;;
47990;Laerm;33757;52.364;4.938;2022-08-01T00:19:43;44.23;41.96;46.87;;
47990;Laerm;33757;52.364;4.938;2022-08-01T00:19:54;47.32;45.11;49.34;;
47990;Laerm;33757;52.364;4.938;2022-08-01T00:20:05;48.49;45.86;51.88;;
47990;Laerm;33757;52.364;4.938;2022-08-01T00:20:15;51.39;46.87;58.09;;
47990;Laerm;33757;52.364;4.938;2022-08-01T00:20:26;51.55;48.34;58.06;;
47990;Laerm;33757;52.364;4.938;2022-08-01T00:20:36;45.49;41.82;52.61;;
47990;Laerm;33757;52.364;4.938;2022-08-01T00:20:46;44.04;41.96;48.69;;
47990;Laerm;33757;52.364;4.938;2022-08-01T00:20:57;45.49;42.35;48.88;;
47990;Laerm;33757;52.364;4.938;2022-08-01T00:21:07;42.68;40.43;44.65;;
47990;Laerm;33757;52.364;4.938;2022-08-01T00:21:17;42.41;39.81;46.10;;
47990;Laerm;33757;52.364;4.938;2022-08-01T00:21:27;42.04;40.03;45.01;;
47990;Laerm;33757;52.364;4.938;2022-08-01T00:21:38;41.94;40.43;44.07;;
47990;Laerm;33757;52.364;4.938;2022-08-01T00:21:48;41.99;39.92;43.39;;
47990;Laerm;33757;52.364;4.938;2022-08-01T00:21:58;42.61;39.92;49.03;;
47990;Laerm;33757;52.364;4.938;2022-08-01T00:22:08;42.81;41.11;46.73;;
47990;Laerm;33757;52.364;4.938;2022-08-01T00:22:19;42.29;40.62;43.72;;
47990;Laerm;33757;52.364;4.938;2022-08-01T00:22:32;42.36;40.53;44.11;;
47990;Laerm;33757;52.364;4.938;2022-08-01T00:22:43;42.62;40.62;43.86;;
47990;Laerm;33757;52.364;4.938;2022-08-01T00:22:53;42.89;40.98;44.80;;
47990;Laerm;33757;52.364;4.938;2022-08-01T00:23:03;47.68;42.16;52.62;;
47990;Laerm;33757;52.364;4.938;2022-08-01T00:23:14;43.82;40.63;47.42;;
47990;Laerm;33757;52.364;4.938;2022-08-01T00:23:25;41.93;39.81;43.34;;
47990;Laerm;33757;52.364;4.938;2022-08-01T00:23:35;42.07;40.23;45.14;;
47990;Laerm;33757;52.364;4.938;2022-08-01T00:23:45;44.04;38.99;51.74;;
47990;Laerm;33757;52.364;4.938;2022-08-01T00:23:55;44.66;41.38;47.81;;
47990;Laerm;33757;52.364;4.938;2022-08-01T00:24:05;42.23;40.03;45.23;;
47990;Laerm;33757;52.364;4.938;2022-08-01T00:24:16;42.80;40.53;48.40;;
47990;Laerm;33757;52.364;4.938;2022-08-01T00:24:26;42.58;40.62;46.76;;
47990;Laerm;33757;52.364;4.938;2022-08-01T00:24:36;42.17;40.33;44.62;;
47990;Laerm;33757;52.364;4.938;2022-08-01T00:24:46;42.39;40.33;44.58;;
47990;Laerm;33757;52.364;4.938;2022-08-01T00:24:57;44.22;42.22;47.95;;
47990;Laerm;33757;52.364;4.938;2022-08-01T00:25:07;42.88;40.79;45.51;;
47990;Laerm;33757;52.364;4.938;2022-08-01T00:25:17;41.98;39.92;44.76;;
47990;Laerm;33757;52.364;4.938;2022-08-01T00:25:27;41.70;39.70;43.19;;
47990;Laerm;33757;52.364;4.938;2022-08-01T00:25:37;41.76;39.08;44.23;;
47990;Laerm;33757;52.364;4.938;2022-08-01T00:25:48;41.92;39.70;45.91;;
47990;Laerm;33757;52.364;4.938;2022-08-01T00:25:58;43.06;39.81;46.18;;
47990;Laerm;33757;52.364;4.938;2022-08-01T00:26:08;42.57;40.23;44.54;;
47990;Laerm;33757;52.364;4.938;2022-08-01T00:26:19;42.83;40.71;46.50;;
47990;Laerm;33757;52.364;4.938;2022-08-01T00:26:29;42.32;40.03;46.73;;
47990;Laerm;33757;52.364;4.938;2022-08-01T00:26:39;42.62;39.81;47.58;;
47990;Laerm;33757;52.364;4.938;2022-08-01T00:26:49;42.95;40.89;45.33;;
47990;Laerm;33757;52.364;4.938;2022-08-01T00:26:59;43.65;41.46;47.02;;
47990;Laerm;33757;52.364;4.938;2022-08-01T00:27:10;43.79;41.96;48.73;;
47990;Laerm;33757;52.364;4.938;2022-08-01T00:27:20;46.06;42.22;50.29;;
47990;Laerm;33757;52.364;4.938;2022-08-01T00:27:30;47.17;44.76;50.89;;
47990;Laerm;33757;52.364;4.938;2022-08-01T00:27:41;46.18;42.59;50.03;;
47990;Laerm;33757;52.364;4.938;2022-08-01T00:27:51;44.34;42.59;47.55;;
47990;Laerm;33757;52.364;4.938;2022-08-01T00:28:03;44.59;42.98;48.12;;
47990;Laerm;33757;52.364;4.938;2022-08-01T00:28:13;43.38;41.53;45.31;;
47990;Laerm;33757;52.364;4.938;2022-08-01T00:28:23;42.46;38.95;44.54;;
47990;Laerm;33757;52.364;4.938;2022-08-01T00:28:34;42.29;40.03;46.23;;
47990;Laerm;33757;52.364;4.938;2022-08-01T00:28:44;42.57;40.33;46.71;;
47990;Laerm;33757;52.364;4.938;2022-08-01T00:28:54;42.18;39.23;46.07;;
47990;Laerm;33757;52.364;4.938;2022-08-01T00:29:04;42.66;40.43;46.43;;
47990;Laerm;33757;52.364;4.938;2022-08-01T00:29:14;44.51;41.22;47.79;;
47990;Laerm;33757;52.364;4.938;2022-08-01T00:29:25;42.19;39.70;43.54;;
47990;Laerm;33757;52.364;4.938;2022-08-01T00:29:35;42.25;40.23;44.27;;
47990;Laerm;33757;52.364;4.938;2022-08-01T00:29:45;42.24;39.70;44.35;;
47990;Laerm;33757;52.364;4.938;2022-08-01T00:29:55;45.87;41.75;50.86;;
47990;Laerm;33757;52.364;4.938;2022-08-01T00:30:05;43.67;41.75;46.58;;
47990;Laerm;33757;52.364;4.938;2022-08-01T00:30:16;43.47;41.96;45.42;;
47990;Laerm;33757;52.364;4.938;2022-08-01T00:30:26;42.59;40.89;44.03;;
47990;Laerm;33757;52.364;4.938;2022-08-01T00:30:36;42.62;40.80;45.57;;
47990;Laerm;33757;52.364;4.938;2022-08-01T00:30:46;42.78;40.33;45.69;;
47990;Laerm;33757;52.364;4.938;2022-08-01T00:30:57;44.85;40.43;57.61;;
47990;Laerm;33757;52.364;4.938;2022-08-01T00:31:07;43.65;40.23;52.26;;
47990;Laerm;33757;52.364;4.938;2022-08-01T00:31:17;42.68;39.70;47.16;;
47990;Laerm;33757;52.364;4.938;2022-08-01T00:31:28;44.35;40.13;54.54;;
47990;Laerm;33757;52.364;4.938;2022-08-01T00:31:38;44.31;40.33;57.30;;
47990;Laerm;33757;52.364;4.938;2022-08-01T00:31:48;44.36;40.89;53.46;;
47990;Laerm;33757;52.364;4.938;2022-08-01T00:31:59;43.40;39.89;50.25;;
47990;Laerm;33757;52.364;4.938;2022-08-01T00:32:09;43.98;40.23;52.62;;
47990;Laerm;33757;52.364;4.938;2022-08-01T00:32:20;46.93;41.68;62.28;;
47990;Laerm;33757;52.364;4.938;2022-08-01T00:32:31;52.82;43.58;63.54;;
47990;Laerm;33757;52.364;4.938;2022-08-01T00:32:41;49.50;40.89;62.11;;
47990;Laerm;33757;52.364;4.938;2022-08-01T00:32:52;42.89;40.33;47.06;;
47990;Laerm;33757;52.364;4.938;2022-08-01T00:33:02;42.27;39.81;44.76;;
47990;Laerm;33757;52.364;4.938;2022-08-01T00:33:12;42.68;40.53;44.73;;
47990;Laerm;33757;52.364;4.938;2022-08-01T00:33:22;42.64;40.43;45.17;;
47990;Laerm;33757;52.364;4.938;2022-08-01T00:33:33;43.76;42.09;45.30;;
47990;Laerm;33757;52.364;4.938;2022-08-01T00:33:43;42.24;40.23;43.72;;
47990;Laerm;33757;52.364;4.938;2022-08-01T00:33:53;42.74;41.22;47.44;;
47990;Laerm;33757;52.364;4.938;2022-08-01T00:34:03;42.49;40.43;45.63;;
47990;Laerm;33757;52.364;4.938;2022-08-01T00:34:14;43.63;41.61;46.97;;
47990;Laerm;33757;52.364;4.938;2022-08-01T00:34:24;43.60;41.75;46.27;;
47990;Laerm;33757;52.364;4.938;2022-08-01T00:34:35;42.91;41.22;44.80;;
47990;Laerm;33757;52.364;4.938;2022-08-01T00:34:45;42.21;40.53;43.68;;
47990;Laerm;33757;52.364;4.938;2022-08-01T00:34:55;43.53;41.33;46.78;;
47990;Laerm;33757;52.364;4.938;2022-08-01T00:35:05;42.61;40.80;45.01;;
47990;Laerm;33757;52.364;4.938;2022-08-01T00:35:16;42.33;40.43;45.20;;
47990;Laerm;33757;52.364;4.938;2022-08-01T00:35:26;42.48;39.81;46.15;;
47990;Laerm;33757;52.364;4.938;2022-08-01T00:35:37;44.28;40.96;49.52;;
47990;Laerm;33757;52.364;4.938;2022-08-01T00:35:47;43.05;40.43;47.40;;
47990;Laerm;33757;52.364;4.938;2022-08-01T00:35:57;42.06;40.03;44.15;;
47990;Laerm;33757;52.364;4.938;2022-08-01T00:36:07;42.25;39.58;44.76;;
47990;Laerm;33757;52.364;4.938;2022-08-01T00:36:18;42.37;40.33;44.54;;
47990;Laerm;33757;52.364;4.938;2022-08-01T00:36:28;42.39;40.53;43.58;;
47990;Laerm;33757;52.364;4.938;2022-08-01T00:36:38;42.73;39.81;48.64;;
47990;Laerm;33757;52.364;4.938;2022-08-01T00:36:48;43.83;41.61;47.22;;
47990;Laerm;33757;52.364;4.938;2022-08-01T00:36:59;42.34;40.80;44.35;;
47990;Laerm;33757;52.364;4.938;2022-08-01T00:37:09;42.58;40.98;45.86;;
47990;Laerm;33757;52.364;4.938;2022-08-01T00:37:19;42.21;40.53;45.36;;
47990;Laerm;33757;52.364;4.938;2022-08-01T00:37:30;42.41;40.45;46.25;;
47990;Laerm;33757;52.364;4.938;2022-08-01T00:37:40;42.82;41.61;46.35;;
47990;Laerm;33757;52.364;4.938;2022-08-01T00:37:50;42.60;40.03;46.23;;
47990;Laerm;33757;52.364;4.938;2022-08-01T00:38:01;42.91;40.53;44.94;;
47990;Laerm;33757;52.364;4.938;2022-08-01T00:38:11;42.74;39.70;47.93;;
47990;Laerm;33757;52.364;4.938;2022-08-01T00:38:22;42.27;40.23;44.07;;
47990;Laerm;33757;52.364;4.938;2022-08-01T00:38:32;42.81;40.33;51.58;;
47990;Laerm;33757;52.364;4.938;2022-08-01T00:38:42;42.57;40.03;48.55;;
47990;Laerm;33757;52.364;4.938;2022-08-01T00:38:53;42.78;40.62;45.83;;
47990;Laerm;33757;52.364;4.938;2022-08-01T00:39:03;42.69;40.53;48.92;;
47990;Laerm;33757;52.364;4.938;2022-08-01T00:39:13;42.72;40.62;45.51;;
47990;Laerm;33757;52.364;4.938;2022-08-01T00:39:23;42.38;40.43;46.13;;
47990;Laerm;33757;52.364;4.938;2022-08-01T00:39:34;42.36;40.43;47.44;;
47990;Laerm;33757;52.364;4.938;2022-08-01T00:39:44;42.42;40.33;45.57;;
47990;Laerm;33757;52.364;4.938;2022-08-01T00:39:54;42.64;40.43;50.32;;
47990;Laerm;33757;52.364;4.938;2022-08-01T00:40:05;42.52;40.23;45.33;;
47990;Laerm;33757;52.364;4.938;2022-08-01T00:40:15;42.82;41.22;45.89;;
47990;Laerm;33757;52.364;4.938;2022-08-01T00:40:26;42.82;40.03;49.30;;
47990;Laerm;33757;52.364;4.938;2022-08-01T00:40:36;43.24;40.53;46.97;;
47990;Laerm;33757;52.364;4.938;2022-08-01T00:40:46;44.37;41.75;49.00;;
47990;Laerm;33757;52.364;4.938;2022-08-01T00:40:56;44.08;41.68;54.29;;
47990;Laerm;33757;52.364;4.938;2022-08-01T00:41:07;43.15;41.22;47.12;;
47990;Laerm;33757;52.364;4.938;2022-08-01T00:41:17;42.50;40.43;44.03;;
47990;Laerm;33757;52.364;4.938;2022-08-01T00:41:27;43.54;40.98;46.78;;
47990;Laerm;33757;52.364;4.938;2022-08-01T00:41:38;43.93;41.38;47.79;;
47990;Laerm;33757;52.364;4.938;2022-08-01T00:41:48;42.85;41.06;44.15;;
47990;Laerm;33757;52.364;4.938;2022-08-01T00:41:59;42.62;40.45;44.54;;
47990;Laerm;33757;52.364;4.938;2022-08-01T00:42:10;45.15;41.46;49.96;;
47990;Laerm;33757;52.364;4.938;2022-08-01T00:42:20;42.40;40.43;45.04;;
47990;Laerm;33757;52.364;4.938;2022-08-01T00:42:30;41.86;39.46;44.54;;
47990;Laerm;33757;52.364;4.938;2022-08-01T00:42:41;41.72;39.34;43.14;;
47990;Laerm;33757;52.364;4.938;2022-08-01T00:42:51;41.87;39.34;43.19;;
47990;Laerm;33757;52.364;4.938;2022-08-01T00:43:01;42.18;39.46;43.54;;
47990;Laerm;33757;52.364;4.938;2022-08-01T00:43:11;43.23;40.98;45.11;;
47990;Laerm;33757;52.364;4.938;2022-08-01T00:43:22;43.01;40.13;45.27;;
47990;Laerm;33757;52.364;4.938;2022-08-01T00:43:32;41.74;39.58;43.39;;
47990;Laerm;33757;52.364;4.938;2022-08-01T00:43:42;42.15;40.13;43.90;;
47990;Laerm;33757;52.364;4.938;2022-08-01T00:43:53;42.40;40.33;44.03;;
47990;Laerm;33757;52.364;4.938;2022-08-01T00:44:04;43.13;40.80;45.97;;
47990;Laerm;33757;52.364;4.938;2022-08-01T00:44:14;42.58;40.43;44.58;;
47990;Laerm;33757;52.364;4.938;2022-08-01T00:44:24;42.56;40.33;44.58;;
47990;Laerm;33757;52.364;4.938;2022-08-01T00:44:35;42.89;40.53;45.48;;
47990;Laerm;33757;52.364;4.938;2022-08-01T00:44:45;42.34;39.68;44.23;;
47990;Laerm;33757;52.364;4.938;2022-08-01T00:44:55;42.02;40.03;43.44;;
47990;Laerm;33757;52.364;4.938;2022-08-01T00:45:05;41.68;39.58;43.44;;
47990;Laerm;33757;52.364;4.938;2022-08-01T00:45:16;41.47;38.99;45.69;;
47990;Laerm;33757;52.364;4.938;2022-08-01T00:45:26;41.82;38.21;44.51;;
47990;Laerm;33757;52.364;4.938;2022-08-01T00:45:36;45.56;40.89;52.41;;
47990;Laerm;33757;52.364;4.938;2022-08-01T00:45:46;44.12;40.89;49.10;;
47990;Laerm;33757;52.364;4.938;2022-08-01T00:45:57;47.12;41.89;53.01;;
47990;Laerm;33757;52.364;4.938;2022-08-01T00:46:07;42.77;41.06;45.48;;
47990;Laerm;33757;52.364;4.938;2022-08-01T00:46:17;46.05;42.06;50.13;;
47990;Laerm;33757;52.364;4.938;2022-08-01T00:46:27;43.55;42.03;45.91;;
47990;Laerm;33757;52.364;4.938;2022-08-01T00:46:38;42.74;40.33;45.34;;
47990;Laerm;33757;52.364;4.938;2022-08-01T00:46:48;42.08;40.13;43.58;;
47990;Laerm;33757;52.364;4.938;2022-08-01T00:46:58;41.96;39.46;43.72;;
47990;Laerm;33757;52.364;4.938;2022-08-01T00:47:08;42.06;39.70;46.02;;
47990;Laerm;33757;52.364;4.938;2022-08-01T00:47:18;41.87;40.13;43.77;;
47990;Laerm;33757;52.364;4.938;2022-08-01T00:47:29;42.16;40.13;43.86;;
47990;Laerm;33757;52.364;4.938;2022-08-01T00:47:39;42.53;40.80;44.62;;
47990;Laerm;33757;52.364;4.938;2022-08-01T00:47:49;41.98;40.43;43.24;;
47990;Laerm;33757;52.364;4.938;2022-08-01T00:47:59;42.24;40.43;43.72;;
47990;Laerm;33757;52.364;4.938;2022-08-01T00:48:10;42.58;40.33;45.07;;
47990;Laerm;33757;52.364;4.938;2022-08-01T00:48:20;43.11;41.06;45.51;;
47990;Laerm;33757;52.364;4.938;2022-08-01T00:48:30;42.94;41.06;45.07;;
47990;Laerm;33757;52.364;4.938;2022-08-01T00:48:40;42.97;41.06;45.33;;
47990;Laerm;33757;52.364;4.938;2022-08-01T00:48:51;42.92;40.89;45.30;;
47990;Laerm;33757;52.364;4.938;2022-08-01T00:49:01;42.03;39.92;43.54;;
47990;Laerm;33757;52.364;4.938;2022-08-01T00:49:12;42.17;38.95;43.54;;
47990;Laerm;33757;52.364;4.938;2022-08-01T00:49:23;42.07;40.03;43.86;;
47990;Laerm;33757;52.364;4.938;2022-08-01T00:49:33;42.13;40.13;43.72;;
47990;Laerm;33757;52.364;4.938;2022-08-01T00:49:43;42.20;39.81;43.77;;
47990;Laerm;33757;52.364;4.938;2022-08-01T00:49:53;42.30;40.23;43.46;;
47990;Laerm;33757;52.364;4.938;2022-08-01T00:50:04;44.62;41.82;47.65;;
47990;Laerm;33757;52.364;4.938;2022-08-01T00:50:14;43.14;41.30;45.69;;
47990;Laerm;33757;52.364;4.938;2022-08-01T00:50:24;42.44;40.43;44.80;;
47990;Laerm;33757;52.364;4.938;2022-08-01T00:50:35;42.15;39.70;44.03;;
47990;Laerm;33757;52.364;4.938;2022-08-01T00:50:45;42.08;40.13;46.07;;
47990;Laerm;33757;52.364;4.938;2022-08-01T00:50:56;42.18;40.13;46.02;;
47990;Laerm;33757;52.364;4.938;2022-08-01T00:51:06;42.18;39.70;44.23;;
47990;Laerm;33757;52.364;4.938;2022-08-01T00:51:17;43.93;41.06;48.99;;
47990;Laerm;33757;52.364;4.938;2022-08-01T00:51:27;49.47;44.27;55.30;;
47990;Laerm;33757;52.364;4.938;2022-08-01T00:51:38;47.77;44.54;52.63;;
47990;Laerm;33757;52.364;4.938;2022-08-01T00:51:48;59.35;47.00;67.03;;
47990;Laerm;33757;52.364;4.938;2022-08-01T00:51:58;55.78;42.35;62.44;;
47990;Laerm;33757;52.364;4.938;2022-08-01T00:52:09;42.19;40.43;43.72;;
47990;Laerm;33757;52.364;4.938;2022-08-01T00:52:19;42.62;39.92;44.19;;
47990;Laerm;33757;52.364;4.938;2022-08-01T00:52:30;42.00;39.46;44.76;;
47990;Laerm;33757;52.364;4.938;2022-08-01T00:52:40;42.05;39.46;47.42;;
47990;Laerm;33757;52.364;4.938;2022-08-01T00:52:51;42.25;40.03;46.59;;
47990;Laerm;33757;52.364;4.938;2022-08-01T00:53:02;42.22;39.92;43.63;;
47990;Laerm;33757;52.364;4.938;2022-08-01T00:53:12;42.02;40.53;43.14;;
47990;Laerm;33757;52.364;4.938;2022-08-01T00:53:22;42.30;40.03;45.01;;
47990;Laerm;33757;52.364;4.938;2022-08-01T00:53:33;42.29;40.33;43.72;;
47990;Laerm;33757;52.364;4.938;2022-08-01T00:53:43;42.41;40.62;43.54;;
47990;Laerm;33757;52.364;4.938;2022-08-01T00:53:53;43.95;41.96;45.83;;
47990;Laerm;33757;52.364;4.938;2022-08-01T00:54:04;44.27;42.88;45.63;;
47990;Laerm;33757;52.364;4.938;2022-08-01T00:54:14;42.94;39.21;48.05;;
47990;Laerm;33757;52.364;4.938;2022-08-01T00:54:25;42.12;40.03;44.47;;
47990;Laerm;33757;52.364;4.938;2022-08-01T00:54:36;42.10;40.03;45.36;;
47990;Laerm;33757;52.364;4.938;2022-08-01T00:54:46;41.99;40.33;44.97;;
47990;Laerm;33757;52.364;4.938;2022-08-01T00:54:56;42.26;40.23;46.35;;
47990;Laerm;33757;52.364;4.938;2022-08-01T00:55:07;42.28;39.92;44.83;;
47990;Laerm;33757;52.364;4.938;2022-08-01T00:55:18;42.16;40.53;44.65;;
47990;Laerm;33757;52.364;4.938;2022-08-01T00:55:28;42.33;40.62;44.51;;
47990;Laerm;33757;52.364;4.938;2022-08-01T00:55:39;42.14;40.33;44.62;;
47990;Laerm;33757;52.364;4.938;2022-08-01T00:55:49;41.96;40.13;44.54;;
47990;Laerm;33757;52.364;4.938;2022-08-01T00:55:59;42.09;39.34;44.76;;
47990;Laerm;33757;52.364;4.938;2022-08-01T00:56:10;41.95;39.92;43.68;;
47990;Laerm;33757;52.364;4.938;2022-08-01T00:56:20;41.87;39.58;43.28;;
47990;Laerm;33757;52.364;4.938;2022-08-01T00:56:31;41.82;40.23;43.24;;
47990;Laerm;33757;52.364;4.938;2022-08-01T00:56:41;43.06;40.03;50.19;;
47990;Laerm;33757;52.364;4.938;2022-08-01T00:56:51;42.23;39.92;43.90;;
47990;Laerm;33757;52.364;4.938;2022-08-01T00:57:02;42.06;40.23;43.34;;
47990;Laerm;33757;52.364;4.938;2022-08-01T00:57:12;42.60;40.53;44.65;;
47990;Laerm;33757;52.364;4.938;2022-08-01T00:57:22;45.20;43.09;48.05;;
47990;Laerm;33757;52.364;4.938;2022-08-01T00:57:33;44.50;41.38;46.45;;
47990;Laerm;33757;52.364;4.938;2022-08-01T00:57:43;42.91;41.46;44.31;;
47990;Laerm;33757;52.364;4.938;2022-08-01T00:57:53;42.98;41.14;44.19;;
47990;Laerm;33757;52.364;4.938;2022-08-01T00:58:04;44.95;41.22;48.71;;